createdAt,value
2022-08-17T00:00:14.701Z,20.10
2022-08-17T00:03:10.445Z,20.10
2022-08-17T00:06:00.118Z,20.00
2022-08-17T00:08:35.770Z,20.00
2022-08-17T00:11:08.037Z,19.90
2022-08-17T00:13:39.038Z,19.90
2022-08-17T00:16:18.572Z,19.90
2022-08-17T00:19:00.382Z,19.80
2022-08-17T00:22:30.130Z,19.80
2022-08-17T00:24:24.427Z,19.80
2022-08-17T00:26:52.630Z,19.70
2022-08-17T00:29:20.463Z,19.70
2022-08-17T00:31:48.725Z,19.70
2022-08-17T00:34:16.544Z,19.60
2022-08-17T00:36:43.971Z,19.60
2022-08-17T00:39:11.332Z,19.60
2022-08-17T00:41:40.134Z,19.50
2022-08-17T00:44:12.415Z,19.50
2022-08-17T00:46:43.790Z,19.50
2022-08-17T00:49:12.790Z,19.40
2022-08-17T00:51:40.155Z,19.50
2022-08-17T00:54:13.365Z,19.50
2022-08-17T00:56:46.303Z,19.40
2022-08-17T00:59:19.933Z,19.40
2022-08-17T01:01:49.566Z,19.30
2022-08-17T01:04:19.186Z,19.30
2022-08-17T01:06:49.735Z,19.30
2022-08-17T01:09:19.521Z,19.30
2022-08-17T01:11:52.307Z,19.30
2022-08-17T01:14:25.007Z,19.20
2022-08-17T01:16:55.163Z,19.20
2022-08-17T01:19:26.320Z,19.20
2022-08-17T01:22:08.637Z,19.10
2022-08-17T01:24:37.814Z,19.10
2022-08-17T01:27:08.050Z,19.10
2022-08-17T01:29:41.241Z,19.10
2022-08-17T01:32:09.292Z,19.00
2022-08-17T01:34:43.365Z,19.00
2022-08-17T01:37:13.671Z,19.00
2022-08-17T01:39:51.626Z,19.00
2022-08-17T01:42:26.477Z,19.00
2022-08-17T01:44:57.902Z,19.00
2022-08-17T01:47:25.354Z,19.00
2022-08-17T01:49:52.839Z,18.90
2022-08-17T01:52:22.129Z,18.90
2022-08-17T01:54:51.269Z,18.90
2022-08-17T01:57:18.846Z,18.90
2022-08-17T01:59:46.256Z,18.90
2022-08-17T02:02:30.425Z,18.90
2022-08-17T02:05:01.416Z,18.90
2022-08-17T02:07:29.263Z,18.80
2022-08-17T02:09:57.021Z,18.80
2022-08-17T02:12:37.668Z,18.80
2022-08-17T02:15:08.174Z,18.80
2022-08-17T02:17:35.949Z,18.80
2022-08-17T02:20:04.798Z,18.70
2022-08-17T02:22:32.311Z,18.70
2022-08-17T02:25:02.373Z,18.70
2022-08-17T02:27:30.900Z,18.70
2022-08-17T02:29:58.451Z,18.70
2022-08-17T02:32:27.970Z,18.70
2022-08-17T02:34:57.520Z,18.60
2022-08-17T02:37:26.246Z,18.70
2022-08-17T02:39:53.624Z,18.70
2022-08-17T02:42:27.920Z,18.60
2022-08-17T02:44:55.309Z,18.60
2022-08-17T02:47:22.545Z,18.50
2022-08-17T02:49:54.253Z,18.60
2022-08-17T02:52:43.252Z,18.50
2022-08-17T02:55:24.613Z,18.50
2022-08-17T02:57:52.707Z,18.50
2022-08-17T03:00:34.163Z,18.50
2022-08-17T03:03:03.581Z,18.50
2022-08-17T03:05:33.131Z,18.50
2022-08-17T03:08:01.259Z,18.50
2022-08-17T03:10:29.820Z,18.50
2022-08-17T03:12:57.595Z,18.40
2022-08-17T03:15:28.773Z,18.40
2022-08-17T03:17:56.884Z,18.40
2022-08-17T03:20:25.952Z,18.50
2022-08-17T03:23:01.769Z,18.40
2022-08-17T03:25:34.548Z,18.40
2022-08-17T03:28:01.942Z,18.40
2022-08-17T03:30:29.939Z,18.40
2022-08-17T03:33:00.246Z,18.30
2022-08-17T03:35:31.546Z,18.30
2022-08-17T03:38:02.555Z,18.30
2022-08-17T03:40:34.529Z,18.20
2022-08-17T03:43:20.848Z,18.20
2022-08-17T03:46:20.728Z,18.30
2022-08-17T03:49:13.400Z,18.20
2022-08-17T03:51:59.134Z,18.20
2022-08-17T03:54:45.049Z,18.20
2022-08-17T03:57:13.779Z,18.10
2022-08-17T03:59:41.246Z,18.10
2022-08-17T04:02:13.211Z,18.10
2022-08-17T04:04:40.373Z,18.10
2022-08-17T04:07:08.570Z,18.10
2022-08-17T04:09:36.705Z,18.10
2022-08-17T04:12:05.283Z,18.20
2022-08-17T04:14:39.342Z,18.20
2022-08-17T04:17:26.401Z,18.20
2022-08-17T04:19:54.963Z,18.20
2022-08-17T04:22:30.689Z,18.20
2022-08-17T04:25:22.267Z,18.20
2022-08-17T04:27:49.671Z,18.20
2022-08-17T04:30:17.226Z,18.20
2022-08-17T04:33:04.895Z,18.20
2022-08-17T04:35:47.721Z,18.30
2022-08-17T04:38:21.287Z,18.30
2022-08-17T04:41:07.588Z,18.40
2022-08-17T04:43:36.786Z,18.40
2022-08-17T04:46:10.267Z,18.50
2022-08-17T04:48:40.833Z,18.50
2022-08-17T04:51:11.415Z,18.60
2022-08-17T04:53:40.445Z,18.70
2022-08-17T04:56:11.688Z,18.80
2022-08-17T04:58:45.942Z,18.90
2022-08-17T05:01:13.769Z,19.00
2022-08-17T05:03:42.028Z,19.00
2022-08-17T05:06:09.501Z,18.90
2022-08-17T05:08:38.957Z,18.90
2022-08-17T05:11:06.532Z,18.90
2022-08-17T05:13:34.316Z,18.90
2022-08-17T05:16:03.476Z,19.00
2022-08-17T05:18:31.641Z,19.00
2022-08-17T05:20:59.188Z,19.10
2022-08-17T05:23:34.994Z,19.30
2022-08-17T05:26:25.681Z,19.30
2022-08-17T05:28:57.001Z,19.40
2022-08-17T05:31:25.871Z,19.50
2022-08-17T05:33:53.502Z,19.60
2022-08-17T05:36:42.331Z,19.60
2022-08-17T05:39:08.387Z,19.70
2022-08-17T05:41:43.154Z,19.80
2022-08-17T05:44:10.476Z,19.90
2022-08-17T05:46:43.620Z,19.80
2022-08-17T05:49:13.352Z,19.90
2022-08-17T05:52:00.147Z,20.00
2022-08-17T05:54:36.062Z,20.20
2022-08-17T05:57:28.438Z,20.40
2022-08-17T06:00:01.429Z,20.60
2022-08-17T06:03:07.380Z,20.70
2022-08-17T06:05:43.860Z,20.90
2022-08-17T06:08:27.057Z,21.00
2022-08-17T06:11:03.121Z,21.10
2022-08-17T06:14:14.911Z,21.20
2022-08-17T06:16:48.674Z,21.30
2022-08-17T06:19:36.350Z,21.30
2022-08-17T06:22:06.270Z,21.30
2022-08-17T06:24:42.119Z,21.40
2022-08-17T06:27:25.653Z,21.50
2022-08-17T06:30:16.020Z,21.60
2022-08-17T06:32:46.224Z,21.60
2022-08-17T06:35:18.582Z,21.70
2022-08-17T06:38:02.310Z,21.80
2022-08-17T06:40:45.709Z,21.80
2022-08-17T06:43:34.243Z,21.90
2022-08-17T06:46:13.226Z,22.00
2022-08-17T06:48:43.587Z,22.10
2022-08-17T06:51:17.199Z,22.10
2022-08-17T06:53:45.398Z,22.20
2022-08-17T06:56:19.945Z,22.20
2022-08-17T06:58:48.475Z,22.30
2022-08-17T07:01:19.299Z,22.40
2022-08-17T07:03:54.844Z,22.50
2022-08-17T07:06:26.775Z,22.60
2022-08-17T07:08:57.944Z,22.70
2022-08-17T07:11:34.082Z,22.80
2022-08-17T07:14:36.674Z,22.90
2022-08-17T07:17:15.614Z,23.00
2022-08-17T07:19:45.792Z,23.20
2022-08-17T07:22:53.525Z,23.20
2022-08-17T07:25:28.695Z,23.40
2022-08-17T07:27:59.879Z,23.40
2022-08-17T07:30:49.377Z,23.50
2022-08-17T07:33:25.853Z,23.60
2022-08-17T07:35:54.023Z,23.70
2022-08-17T07:38:25.967Z,23.80
2022-08-17T07:40:59.171Z,24.00
2022-08-17T07:43:31.283Z,24.10
2022-08-17T07:46:34.465Z,24.20
2022-08-17T07:49:03.552Z,24.40
2022-08-17T07:51:41.400Z,24.50
2022-08-17T07:54:22.667Z,24.60
2022-08-17T07:57:03.497Z,24.70
2022-08-17T07:59:34.047Z,24.80
2022-08-17T08:02:17.178Z,24.90
2022-08-17T08:05:01.118Z,25.00
2022-08-17T08:08:00.426Z,25.10
2022-08-17T08:10:36.940Z,25.20
2022-08-17T08:13:21.302Z,25.30
2022-08-17T08:15:54.087Z,25.30
2022-08-17T08:18:54.689Z,25.50
2022-08-17T08:21:29.137Z,25.60
2022-08-17T08:24:22.250Z,25.70
2022-08-17T08:27:11.174Z,25.80
2022-08-17T08:29:57.045Z,26.00
2022-08-17T08:32:45.073Z,26.30
2022-08-17T08:35:35.095Z,26.50
2022-08-17T08:38:23.960Z,26.70
2022-08-17T08:41:08.455Z,26.90
2022-08-17T08:44:00.884Z,27.10
2022-08-17T08:46:44.084Z,27.20
2022-08-17T08:50:03.297Z,27.40
2022-08-17T08:53:03.775Z,27.50
2022-08-17T08:55:54.350Z,27.60
2022-08-17T08:58:41.881Z,27.80
2022-08-17T09:01:38.237Z,27.90
2022-08-17T09:04:25.545Z,28.10
2022-08-17T09:07:07.712Z,28.30
2022-08-17T09:09:45.437Z,28.50
2022-08-17T09:12:33.346Z,28.70
2022-08-17T09:15:13.353Z,28.80
2022-08-17T09:19:02.862Z,29.00
2022-08-17T09:21:04.438Z,29.00
2022-08-17T09:23:45.458Z,29.10
2022-08-17T09:26:23.027Z,29.20
2022-08-17T09:29:00.373Z,29.40
2022-08-17T09:31:49.216Z,29.50
2022-08-17T09:34:28.162Z,29.50
2022-08-17T09:37:18.753Z,29.60
2022-08-17T09:39:57.153Z,29.80
2022-08-17T09:42:36.135Z,29.90
2022-08-17T09:45:23.965Z,30.10
2022-08-17T09:48:23.065Z,30.20
2022-08-17T09:51:03.288Z,30.40
2022-08-17T09:53:38.293Z,30.60
2022-08-17T09:56:24.299Z,30.70
2022-08-17T09:59:38.398Z,31.00
2022-08-17T10:02:39.563Z,31.20
2022-08-17T10:05:37.667Z,31.50
2022-08-17T10:08:09.421Z,31.50
2022-08-17T10:11:06.043Z,31.70
2022-08-17T10:13:59.578Z,31.90
2022-08-17T10:16:38.406Z,32.00
2022-08-17T10:19:18.348Z,32.20
2022-08-17T10:22:32.617Z,32.00
2022-08-17T10:25:23.654Z,32.20
2022-08-17T10:27:57.719Z,32.40
2022-08-17T10:30:28.920Z,32.80
2022-08-17T10:33:15.587Z,32.80
2022-08-17T10:36:10.925Z,33.00
2022-08-17T10:38:51.449Z,33.30
2022-08-17T10:41:21.444Z,33.30
2022-08-17T10:44:36.679Z,33.40
2022-08-17T10:46:50.698Z,33.70
2022-08-17T10:49:17.899Z,34.10
2022-08-17T10:51:53.585Z,34.50
2022-08-17T10:54:41.258Z,34.40
2022-08-17T10:57:34.760Z,34.80
2022-08-17T11:00:23.062Z,35.20
2022-08-17T11:02:58.609Z,35.40
2022-08-17T11:06:14.206Z,35.10
2022-08-17T11:08:50.313Z,34.70
2022-08-17T11:11:38.758Z,34.20
2022-08-17T11:14:24.084Z,34.30
2022-08-17T11:17:15.565Z,34.10
2022-08-17T11:20:05.819Z,34.00
2022-08-17T11:22:34.181Z,34.50
2022-08-17T11:25:31.912Z,34.40
2022-08-17T11:28:20.085Z,34.30
2022-08-17T11:30:51.385Z,34.50
2022-08-17T11:33:34.157Z,34.50
2022-08-17T11:36:20.032Z,34.50
2022-08-17T11:39:25.178Z,34.60
2022-08-17T11:42:25.616Z,34.40
2022-08-17T11:45:03.362Z,34.90
2022-08-17T11:48:26.550Z,35.00
2022-08-17T11:51:09.790Z,35.10
2022-08-17T11:53:40.103Z,34.80
2022-08-17T11:56:29.000Z,34.70
2022-08-17T11:58:56.489Z,35.10
2022-08-17T12:01:24.357Z,35.70
2022-08-17T12:04:03.879Z,35.50
2022-08-17T12:06:33.496Z,35.50
2022-08-17T12:09:36.092Z,34.70
2022-08-17T12:12:14.673Z,34.70
2022-08-17T12:15:09.635Z,35.20
2022-08-17T12:17:40.434Z,35.50
2022-08-17T12:20:20.285Z,36.00
2022-08-17T12:23:20.668Z,36.00
2022-08-17T12:25:52.891Z,35.50
2022-08-17T12:28:28.635Z,35.20
2022-08-17T12:31:00.491Z,35.20
2022-08-17T12:33:28.950Z,35.60
2022-08-17T12:36:06.498Z,36.20
2022-08-17T12:38:36.265Z,36.50
2022-08-17T12:41:26.108Z,35.90
2022-08-17T12:44:02.453Z,36.30
2022-08-17T12:46:44.916Z,36.20
2022-08-17T12:49:22.987Z,36.80
2022-08-17T12:51:53.659Z,36.60
2022-08-17T12:54:27.339Z,36.20
2022-08-17T12:56:55.107Z,36.10
2022-08-17T12:59:29.808Z,36.20
2022-08-17T13:01:59.318Z,36.10
2022-08-17T13:04:29.657Z,35.90
2022-08-17T13:07:00.225Z,35.70
2022-08-17T13:09:36.038Z,35.40
2022-08-17T13:12:08.621Z,34.80
2022-08-17T13:14:36.331Z,34.60
2022-08-17T13:17:09.914Z,34.30
2022-08-17T13:19:49.631Z,33.80
2022-08-17T13:22:22.420Z,33.80
2022-08-17T13:24:56.230Z,33.60
2022-08-17T13:27:26.563Z,33.70
2022-08-17T13:29:59.752Z,33.90
2022-08-17T13:32:40.435Z,33.80
2022-08-17T13:35:41.006Z,33.40
2022-08-17T13:38:13.533Z,33.00
2022-08-17T13:40:50.135Z,32.80
2022-08-17T13:43:40.672Z,32.70
2022-08-17T13:46:22.597Z,32.60
2022-08-17T13:49:03.162Z,32.20
2022-08-17T13:51:43.457Z,32.10
2022-08-17T13:54:37.694Z,32.00
2022-08-17T13:57:20.852Z,32.00
2022-08-17T13:59:55.268Z,32.20
2022-08-17T14:02:27.988Z,32.40
2022-08-17T14:04:57.473Z,32.90
2022-08-17T14:07:30.285Z,35.30
2022-08-17T14:10:07.977Z,38.40
2022-08-17T14:12:37.698Z,40.90
2022-08-17T14:15:06.675Z,43.60
2022-08-17T14:17:38.638Z,44.50
2022-08-17T14:20:09.652Z,44.50
2022-08-17T14:22:40.093Z,43.80
2022-08-17T14:25:08.616Z,44.10
2022-08-17T14:27:53.229Z,44.50
2022-08-17T14:30:29.697Z,45.80
2022-08-17T14:32:58.931Z,46.10
2022-08-17T14:35:28.281Z,46.30
2022-08-17T14:37:56.306Z,45.60
2022-08-17T14:40:25.224Z,46.10
2022-08-17T14:42:55.327Z,46.90
2022-08-17T14:45:29.850Z,47.90
2022-08-17T14:48:07.857Z,46.40
2022-08-17T14:50:36.305Z,45.20
2022-08-17T14:53:08.027Z,43.90
2022-08-17T14:55:36.974Z,41.60
2022-08-17T14:58:04.252Z,39.30
2022-08-17T15:00:32.696Z,38.40
2022-08-17T15:03:01.214Z,37.60
2022-08-17T15:05:35.115Z,36.80
2022-08-17T15:08:03.879Z,37.30
2022-08-17T15:10:31.917Z,37.20
2022-08-17T15:13:00.458Z,35.90
2022-08-17T15:15:28.713Z,35.20
2022-08-17T15:17:56.272Z,35.00
2022-08-17T15:20:28.604Z,34.60
2022-08-17T15:22:57.600Z,35.00
2022-08-17T15:25:28.447Z,36.70
2022-08-17T15:27:56.196Z,37.30
2022-08-17T15:30:25.841Z,37.30
2022-08-17T15:32:55.225Z,37.20
2022-08-17T15:35:27.115Z,36.40
2022-08-17T15:37:55.065Z,36.30
2022-08-17T15:40:22.750Z,35.40
2022-08-17T15:42:51.224Z,35.00
2022-08-17T15:45:23.067Z,34.90
2022-08-17T15:47:50.909Z,35.70
2022-08-17T15:50:18.426Z,36.80
2022-08-17T15:52:50.360Z,37.50
2022-08-17T15:55:23.992Z,37.50
2022-08-17T15:57:52.426Z,37.00
2022-08-17T16:00:20.678Z,35.80
2022-08-17T16:03:45.812Z,36.10
2022-08-17T16:05:36.312Z,35.60
2022-08-17T16:08:04.623Z,35.10
2022-08-17T16:10:35.365Z,35.00
2022-08-17T16:13:04.494Z,34.80
2022-08-17T16:15:32.325Z,33.90
2022-08-17T16:17:59.815Z,33.90
2022-08-17T16:20:27.777Z,33.70
2022-08-17T16:22:57.667Z,33.60
2022-08-17T16:25:51.898Z,33.20
2022-08-17T16:28:17.876Z,33.10
2022-08-17T16:30:45.617Z,33.30
2022-08-17T16:33:13.710Z,33.30
2022-08-17T16:35:42.144Z,33.00
2022-08-17T16:38:09.691Z,32.80
2022-08-17T16:40:38.270Z,32.60
2022-08-17T16:43:12.190Z,32.60
2022-08-17T16:45:40.851Z,33.10
2022-08-17T16:48:10.090Z,33.00
2022-08-17T16:50:37.820Z,33.00
2022-08-17T16:53:11.790Z,32.80
2022-08-17T16:55:39.124Z,32.60
2022-08-17T16:58:08.868Z,32.40
2022-08-17T17:00:37.160Z,32.10
2022-08-17T17:03:26.138Z,31.40
2022-08-17T17:06:08.763Z,31.30
2022-08-17T17:08:48.976Z,31.10
2022-08-17T17:11:25.102Z,31.00
2022-08-17T17:14:01.635Z,31.20
2022-08-17T17:16:46.487Z,31.40
2022-08-17T17:19:35.131Z,31.60
2022-08-17T17:22:20.455Z,31.50
2022-08-17T17:25:15.542Z,31.50
2022-08-17T17:28:06.290Z,30.90
2022-08-17T17:30:42.785Z,30.70
2022-08-17T17:33:17.893Z,30.40
2022-08-17T17:35:56.774Z,30.10
2022-08-17T17:38:30.059Z,29.80
2022-08-17T17:41:04.597Z,29.60
2022-08-17T17:43:39.643Z,29.40
2022-08-17T17:46:38.761Z,29.30
2022-08-17T17:49:06.638Z,29.10
2022-08-17T17:52:09.453Z,28.90
2022-08-17T17:54:55.908Z,28.70
2022-08-17T17:57:51.414Z,28.60
2022-08-17T18:00:34.573Z,28.40
2022-08-17T18:03:11.627Z,28.30
2022-08-17T18:06:04.331Z,28.10
2022-08-17T18:08:53.485Z,27.90
2022-08-17T18:11:35.118Z,27.80
2022-08-17T18:14:02.481Z,27.60
2022-08-17T18:16:32.914Z,27.50
2022-08-17T18:19:01.149Z,27.50
2022-08-17T18:21:44.440Z,27.30
2022-08-17T18:24:12.939Z,27.10
2022-08-17T18:26:45.136Z,27.10
2022-08-17T18:29:36.808Z,27.00
2022-08-17T18:32:21.670Z,26.80
2022-08-17T18:34:58.511Z,26.70
2022-08-17T18:37:37.968Z,26.60
2022-08-17T18:40:17.859Z,26.50
2022-08-17T18:43:00.361Z,26.40
2022-08-17T18:45:33.482Z,26.20
2022-08-17T18:48:01.838Z,26.10
2022-08-17T18:50:39.698Z,26.00
2022-08-17T18:53:33.428Z,25.90
2022-08-17T18:56:31.384Z,25.80
2022-08-17T18:59:23.376Z,25.70
2022-08-17T19:01:59.215Z,25.60
2022-08-17T19:04:55.919Z,25.60
2022-08-17T19:07:25.700Z,25.50
2022-08-17T19:10:05.056Z,25.40
2022-08-17T19:12:39.297Z,25.30
2022-08-17T19:15:09.422Z,25.30
2022-08-17T19:17:46.944Z,25.20
2022-08-17T19:20:36.952Z,25.10
2022-08-17T19:23:13.746Z,25.10
2022-08-17T19:25:47.865Z,25.10
2022-08-17T19:28:33.852Z,25.00
2022-08-17T19:31:08.663Z,24.90
2022-08-17T19:33:37.675Z,24.90
2022-08-17T19:36:26.237Z,24.80
2022-08-17T19:39:11.335Z,24.70
2022-08-17T19:42:10.370Z,24.70
2022-08-17T19:44:37.788Z,24.70
2022-08-17T19:47:54.330Z,24.60
2022-08-17T19:50:48.532Z,24.50
2022-08-17T19:54:01.723Z,24.60
2022-08-17T19:56:55.553Z,24.50
2022-08-17T19:59:38.350Z,24.40
2022-08-17T20:02:24.521Z,24.40
2022-08-17T20:04:53.307Z,24.30
2022-08-17T20:07:28.700Z,24.30
2022-08-17T20:10:11.707Z,24.30
2022-08-17T20:12:42.923Z,24.20
2022-08-17T20:15:23.097Z,24.20
2022-08-17T20:17:51.295Z,24.20
2022-08-17T20:20:32.946Z,24.10
2022-08-17T20:23:26.310Z,24.10
2022-08-17T20:25:59.367Z,24.00
2022-08-17T20:28:30.709Z,24.00
2022-08-17T20:30:58.683Z,23.90
2022-08-17T20:33:31.691Z,23.90
2022-08-17T20:36:14.320Z,23.90
2022-08-17T20:38:45.857Z,23.80
2022-08-17T20:41:16.934Z,23.80
2022-08-17T20:44:05.619Z,23.70
2022-08-17T20:46:38.893Z,23.70
2022-08-17T20:49:08.960Z,23.60
2022-08-17T20:52:00.912Z,23.60
2022-08-17T20:54:46.222Z,23.60
2022-08-17T20:57:34.425Z,23.50
2022-08-17T21:00:32.500Z,23.40
2022-08-17T21:03:24.493Z,23.40
2022-08-17T21:06:00.824Z,23.30
2022-08-17T21:08:32.341Z,23.30
2022-08-17T21:11:21.009Z,23.20
2022-08-17T21:14:28.652Z,23.10
2022-08-17T21:17:02.543Z,23.10
2022-08-17T21:20:09.792Z,23.00
2022-08-17T21:22:49.365Z,23.00
2022-08-17T21:25:19.673Z,23.00
2022-08-17T21:28:01.641Z,23.00
2022-08-17T21:30:28.863Z,23.00
2022-08-17T21:33:18.724Z,23.00
2022-08-17T21:35:58.714Z,22.90
2022-08-17T21:38:37.352Z,22.80
2022-08-17T21:41:04.939Z,22.80
2022-08-17T21:43:35.628Z,22.70
2022-08-17T21:46:10.739Z,22.70
2022-08-17T21:48:48.237Z,22.60
2022-08-17T21:51:26.426Z,22.60
2022-08-17T21:53:57.301Z,22.50
2022-08-17T21:56:36.458Z,22.50
2022-08-17T21:59:20.192Z,22.50
2022-08-17T22:01:57.713Z,22.40
2022-08-17T22:04:37.683Z,22.40
2022-08-17T22:07:11.324Z,22.40
2022-08-17T22:09:48.125Z,22.30
2022-08-17T22:12:22.240Z,22.30
2022-08-17T22:15:02.485Z,22.30
2022-08-17T22:17:35.689Z,22.30
2022-08-17T22:20:14.357Z,22.30
2022-08-17T22:23:12.378Z,22.30
2022-08-17T22:26:12.532Z,22.30
2022-08-17T22:28:54.775Z,22.30
2022-08-17T22:31:28.496Z,22.30
2022-08-17T22:34:01.605Z,22.30
2022-08-17T22:36:35.909Z,22.30
2022-08-17T22:39:09.377Z,22.30
2022-08-17T22:41:42.941Z,22.30
2022-08-17T22:44:21.178Z,22.30
2022-08-17T22:46:58.837Z,22.40
2022-08-17T22:49:54.272Z,22.30
2022-08-17T22:53:01.586Z,22.30
2022-08-17T22:55:50.488Z,22.30
2022-08-17T22:58:43.058Z,22.30
2022-08-17T23:01:32.504Z,22.30
2022-08-17T23:04:04.741Z,22.30
2022-08-17T23:06:36.416Z,22.30
2022-08-17T23:09:05.903Z,22.20
2022-08-17T23:11:48.634Z,22.20
2022-08-17T23:14:20.005Z,22.20
2022-08-17T23:16:50.306Z,22.20
2022-08-17T23:19:21.099Z,22.20
2022-08-17T23:21:50.583Z,22.20
2022-08-17T23:24:23.557Z,22.20
2022-08-17T23:26:51.060Z,22.20
2022-08-17T23:29:20.716Z,22.20
2022-08-17T23:31:49.396Z,22.10
2022-08-17T23:34:18.597Z,22.10
2022-08-17T23:36:53.320Z,22.10
2022-08-17T23:39:24.552Z,22.10
2022-08-17T23:42:00.284Z,22.10
2022-08-17T23:44:29.060Z,22.10
2022-08-17T23:46:57.134Z,22.00
2022-08-17T23:49:25.291Z,22.00
2022-08-17T23:51:55.863Z,22.00
2022-08-17T23:54:25.245Z,21.90
2022-08-17T23:56:53.103Z,21.90
2022-08-17T23:59:22.693Z,21.90
